Terminal Aerodrome Forecast
Issued by NWS

Home | Current Version | Previous Version | Text Only | Print | Product List | Glossary On
Versions: 1 2 3 4 5 6 7 8 9 10 11 12 13
000
FTUS44 KCRP 262300
TAFLRD
TAF
KLRD 262337Z 2700/2724 10013G17KT P6SM FEW200
     FM270800 05013KT P6SM BKN035 BKN060
     FM271100 05013KT P6SM OVC025
     FM271500 05010KT P6SM OVC015=

USA.gov is the U.S. government's official web portal to all federal, state and local government web resources and services.